createdAt,value
2022-08-08T00:00:59.552Z,30.50
2022-08-08T00:03:59.617Z,40.20
2022-08-08T00:07:12.544Z,39.60
2022-08-08T00:10:28.508Z,36.60
2022-08-08T00:14:16.679Z,36.60
2022-08-08T00:17:23.145Z,38.30
2022-08-08T00:20:44.459Z,33.30
2022-08-08T00:23:52.620Z,42.30
2022-08-08T00:26:56.312Z,38.40
2022-08-08T00:30:01.663Z,35.70
2022-08-08T00:33:11.731Z,36.90
2022-08-08T00:36:25.542Z,38.10
2022-08-08T00:41:09.555Z,37.50
2022-08-08T00:44:00.705Z,44.70
2022-08-08T00:47:24.142Z,43.80
2022-08-08T00:51:15.262Z,38.30
2022-08-08T00:54:25.215Z,42.50
2022-08-08T00:57:58.145Z,38.60
2022-08-08T01:01:13.559Z,42.70
2022-08-08T01:05:02.168Z,42.80
2022-08-08T01:08:14.023Z,44.40
2022-08-08T01:11:30.726Z,39.10
2022-08-08T01:15:37.016Z,35.60
2022-08-08T01:19:13.714Z,40.30
2022-08-08T01:22:57.837Z,46.80
2022-08-08T01:26:15.348Z,45.20
2022-08-08T01:29:59.135Z,41.20
2022-08-08T01:33:43.271Z,49.10
2022-08-08T01:37:17.328Z,51.10
2022-08-08T01:40:28.042Z,52.10
2022-08-08T01:43:38.666Z,49.60
2022-08-08T01:48:14.561Z,48.50
2022-08-08T01:51:01.751Z,51.60
2022-08-08T01:54:16.400Z,42.40
2022-08-08T01:58:13.955Z,46.50
2022-08-08T02:02:03.045Z,48.50
2022-08-08T02:05:17.029Z,46.40
2022-08-08T02:08:59.620Z,42.00
2022-08-08T02:12:16.475Z,49.30
2022-08-08T02:15:34.715Z,46.00
2022-08-08T02:18:44.796Z,53.40
2022-08-08T02:22:31.297Z,48.10
2022-08-08T02:25:49.443Z,46.00
2022-08-08T02:29:25.126Z,51.50
2022-08-08T02:32:31.669Z,56.40
2022-08-08T02:36:04.577Z,48.90
2022-08-08T02:39:42.789Z,50.20
2022-08-08T02:44:35.360Z,53.70
2022-08-08T02:47:09.547Z,57.10
2022-08-08T02:50:55.946Z,51.60
2022-08-08T02:54:07.680Z,53.50
2022-08-08T02:57:44.475Z,44.80
2022-08-08T03:01:02.448Z,50.10
2022-08-08T03:05:03.241Z,47.30
2022-08-08T03:08:17.377Z,61.10
2022-08-08T03:12:02.740Z,55.00
2022-08-08T03:16:01.577Z,59.90
2022-08-08T03:18:50.335Z,57.20
2022-08-08T03:21:58.844Z,56.40
2022-08-08T03:25:09.305Z,54.70
2022-08-08T03:28:22.060Z,55.30
2022-08-08T03:32:06.207Z,59.80
2022-08-08T03:35:09.622Z,56.90
2022-08-08T03:38:54.395Z,59.20
2022-08-08T03:42:27.322Z,60.10
2022-08-08T03:44:58.745Z,60.10
2022-08-08T03:48:07.775Z,61.50
2022-08-08T03:51:14.179Z,65.10
2022-08-08T03:54:52.118Z,64.00
2022-08-08T03:58:31.445Z,64.10
2022-08-08T04:01:02.068Z,63.50
2022-08-08T04:04:06.637Z,62.70
2022-08-08T04:07:16.589Z,62.70
2022-08-08T04:10:18.808Z,63.50
2022-08-08T04:13:23.517Z,64.70
2022-08-08T04:16:38.983Z,66.10
2022-08-08T04:19:44.379Z,66.80
2022-08-08T04:22:51.402Z,65.90
2022-08-08T04:25:54.638Z,66.40
2022-08-08T04:28:57.342Z,64.40
2022-08-08T04:32:01.059Z,65.90
2022-08-08T04:35:06.143Z,66.20
2022-08-08T04:38:20.942Z,66.50
2022-08-08T04:41:24.981Z,63.40
2022-08-08T04:44:38.707Z,63.30
2022-08-08T04:47:46.209Z,67.00
2022-08-08T04:50:51.547Z,65.90
2022-08-08T04:54:38.186Z,66.60
2022-08-08T04:57:20.568Z,69.00
2022-08-08T05:00:25.280Z,69.40
2022-08-08T05:04:11.160Z,69.50
2022-08-08T05:06:52.373Z,70.20
2022-08-08T05:09:57.086Z,68.00
2022-08-08T05:13:02.923Z,67.30
2022-08-08T05:16:52.128Z,64.70
2022-08-08T05:20:10.148Z,65.90
2022-08-08T05:23:00.722Z,74.40
2022-08-08T05:26:06.275Z,64.00
2022-08-08T05:29:08.549Z,63.00
2022-08-08T05:32:13.619Z,65.90
2022-08-08T05:35:17.325Z,63.70
2022-08-08T05:38:31.440Z,62.60
2022-08-08T05:41:54.693Z,61.50
2022-08-08T05:45:00.668Z,63.00
2022-08-08T05:48:12.096Z,63.00
2022-08-08T05:51:17.855Z,61.30
2022-08-08T05:54:38.840Z,61.50
2022-08-08T05:58:04.317Z,61.90
2022-08-08T06:01:08.123Z,61.50
2022-08-08T06:04:13.884Z,60.60
2022-08-08T06:07:25.321Z,61.50
2022-08-08T06:10:31.566Z,59.30
2022-08-08T06:13:36.199Z,59.40
2022-08-08T06:16:51.987Z,57.80
2022-08-08T06:20:04.628Z,56.50
2022-08-08T06:23:06.640Z,54.10
2022-08-08T06:26:39.110Z,53.50
2022-08-08T06:30:11.806Z,50.30
2022-08-08T06:33:37.145Z,34.40
2022-08-08T06:36:52.990Z,30.60
2022-08-08T06:39:57.334Z,25.80
2022-08-08T06:43:10.059Z,24.10
2022-08-08T06:46:23.903Z,14.60
2022-08-08T06:49:55.841Z,21.00
2022-08-08T06:52:50.572Z,18.60
2022-08-08T06:56:02.417Z,15.90
2022-08-08T06:59:12.362Z,13.90
2022-08-08T07:02:28.801Z,12.80
2022-08-08T07:05:40.201Z,10.10
2022-08-08T07:08:45.561Z,9.50
2022-08-08T07:11:51.835Z,8.10
2022-08-08T07:15:06.021Z,5.40
2022-08-08T07:18:37.028Z,4.90
2022-08-08T07:22:11.632Z,6.70
2022-08-08T07:25:20.969Z,3.30
2022-08-08T07:28:24.198Z,5.20
2022-08-08T07:31:36.095Z,5.90
2022-08-08T07:34:48.395Z,4.90
2022-08-08T07:38:10.166Z,4.40
2022-08-08T07:41:23.703Z,4.80
2022-08-08T07:44:40.654Z,4.30
2022-08-08T07:47:49.133Z,6.20
2022-08-08T07:50:58.826Z,4.60
2022-08-08T07:54:09.032Z,4.50
2022-08-08T07:57:36.201Z,1.40
2022-08-08T08:00:52.570Z,1.70
2022-08-08T08:04:04.910Z,2.60
2022-08-08T08:07:08.905Z,1.30
2022-08-08T08:10:12.772Z,2.40
2022-08-08T08:14:08.491Z,3.00
2022-08-08T08:17:20.930Z,1.50
2022-08-08T08:20:29.810Z,2.50
2022-08-08T08:23:40.652Z,1.00
2022-08-08T08:26:46.785Z,1.00
2022-08-08T08:29:51.066Z,1.00
2022-08-08T08:32:56.900Z,1.00
2022-08-08T08:36:20.418Z,1.00
2022-08-08T08:39:25.411Z,1.00
2022-08-08T08:42:47.644Z,1.00
2022-08-08T08:45:57.439Z,1.40
2022-08-08T08:49:00.423Z,1.00
2022-08-08T08:52:04.839Z,1.20
2022-08-08T08:55:08.740Z,1.00
2022-08-08T08:58:28.047Z,1.60
2022-08-08T09:01:45.408Z,1.00
2022-08-08T09:05:07.849Z,1.00
2022-08-08T09:08:20.846Z,1.00
2022-08-08T09:11:24.077Z,1.00
2022-08-08T09:14:26.528Z,1.00
2022-08-08T09:17:41.705Z,1.00
2022-08-08T09:21:59.505Z,1.00
2022-08-08T09:24:17.704Z,1.00
2022-08-08T09:27:23.193Z,1.00
2022-08-08T09:30:45.468Z,1.00
2022-08-08T09:34:14.615Z,1.00
2022-08-08T09:37:58.909Z,1.00
2022-08-08T09:40:46.516Z,1.00
2022-08-08T09:44:06.568Z,1.00
2022-08-08T09:48:04.817Z,1.00
2022-08-08T09:50:37.297Z,1.00
2022-08-08T09:53:59.047Z,1.00
2022-08-08T09:57:07.090Z,1.00
2022-08-08T10:00:37.781Z,1.00
2022-08-08T10:03:44.412Z,1.00
2022-08-08T10:06:53.074Z,1.00
2022-08-08T10:10:00.672Z,1.00
2022-08-08T10:13:30.003Z,1.00
2022-08-08T10:16:38.945Z,1.00
2022-08-08T10:19:57.240Z,1.00
2022-08-08T10:23:01.235Z,1.00
2022-08-08T10:26:04.612Z,1.00
2022-08-08T10:29:59.303Z,1.00
2022-08-08T10:33:02.136Z,1.00
2022-08-08T10:36:09.110Z,1.00
2022-08-08T10:39:31.567Z,1.00
2022-08-08T10:42:47.018Z,1.00
2022-08-08T10:45:55.769Z,1.00
2022-08-08T10:49:00.273Z,1.00
2022-08-08T10:52:02.358Z,1.00
2022-08-08T10:55:41.079Z,1.00
2022-08-08T10:58:38.425Z,1.00
2022-08-08T11:01:56.741Z,1.00
2022-08-08T11:05:05.584Z,1.00
2022-08-08T11:08:36.950Z,1.00
2022-08-08T11:12:05.928Z,1.00
2022-08-08T11:15:08.026Z,1.00
2022-08-08T11:18:10.695Z,1.00
2022-08-08T11:21:20.288Z,1.00
2022-08-08T11:24:23.151Z,1.00
2022-08-08T11:27:29.128Z,1.00
2022-08-08T11:30:41.010Z,1.00
2022-08-08T11:34:03.049Z,1.00
2022-08-08T11:37:15.068Z,1.00
2022-08-08T11:40:22.538Z,1.00
2022-08-08T11:43:38.902Z,1.00
2022-08-08T11:46:43.749Z,1.00
2022-08-08T11:49:49.134Z,1.00
2022-08-08T11:52:52.403Z,1.00
2022-08-08T11:55:55.425Z,1.00
2022-08-08T11:59:05.142Z,1.00
2022-08-08T12:02:31.091Z,1.00
2022-08-08T12:05:36.322Z,1.00
2022-08-08T12:08:38.462Z,1.00
2022-08-08T12:11:42.875Z,1.00
2022-08-08T12:14:58.117Z,1.00
2022-08-08T12:18:00.232Z,1.00
2022-08-08T12:21:02.167Z,1.00
2022-08-08T12:24:04.165Z,1.00
2022-08-08T12:27:07.142Z,1.00
2022-08-08T12:30:15.770Z,1.00
2022-08-08T12:33:37.479Z,1.00
2022-08-08T12:36:51.279Z,1.00
2022-08-08T12:40:01.842Z,1.00
2022-08-08T12:43:04.505Z,1.00
2022-08-08T12:46:19.078Z,1.00
2022-08-08T12:49:43.112Z,1.00
2022-08-08T12:52:54.615Z,1.00
2022-08-08T12:56:19.563Z,1.00
2022-08-08T12:59:36.597Z,1.00
2022-08-08T13:02:51.147Z,1.00
2022-08-08T13:06:06.590Z,1.00
2022-08-08T13:09:10.550Z,1.00
2022-08-08T13:12:26.778Z,1.00
2022-08-08T13:15:35.628Z,1.00
2022-08-08T13:18:48.815Z,1.00
2022-08-08T13:22:04.895Z,1.00
2022-08-08T13:25:17.208Z,1.00
2022-08-08T13:28:28.748Z,1.00
2022-08-08T13:31:33.949Z,1.00
2022-08-08T13:34:40.025Z,1.00
2022-08-08T13:38:04.653Z,1.00
2022-08-08T13:41:05.719Z,1.00
2022-08-08T13:44:10.905Z,1.00
2022-08-08T13:47:20.206Z,1.00
2022-08-08T13:50:38.444Z,1.00
2022-08-08T13:54:00.038Z,1.00
2022-08-08T13:57:13.738Z,1.00
2022-08-08T14:00:24.536Z,1.00
2022-08-08T14:03:47.022Z,1.00
2022-08-08T14:06:49.490Z,1.00
2022-08-08T14:10:05.688Z,1.00
2022-08-08T14:13:31.296Z,1.00
2022-08-08T14:16:36.113Z,1.00
2022-08-08T14:19:58.203Z,1.00
2022-08-08T14:23:10.597Z,1.00
2022-08-08T14:26:28.127Z,1.00
2022-08-08T14:29:31.036Z,1.00
2022-08-08T14:32:52.715Z,1.00
2022-08-08T14:36:03.349Z,1.00
2022-08-08T14:39:11.817Z,1.00
2022-08-08T14:42:16.649Z,1.00
2022-08-08T14:45:33.457Z,1.00
2022-08-08T14:48:57.152Z,1.00
2022-08-08T14:52:07.504Z,1.00
2022-08-08T14:55:09.678Z,1.00
2022-08-08T14:58:16.977Z,1.00
2022-08-08T15:01:40.797Z,1.00
2022-08-08T15:04:45.614Z,1.00
2022-08-08T15:07:53.836Z,1.00
2022-08-08T15:11:01.997Z,1.00
2022-08-08T15:14:11.302Z,1.00
2022-08-08T15:17:15.747Z,1.00
2022-08-08T15:20:18.541Z,1.00
2022-08-08T15:23:20.678Z,1.00
2022-08-08T15:26:25.820Z,1.00
2022-08-08T15:29:33.592Z,1.00
2022-08-08T15:32:36.554Z,1.00
2022-08-08T15:35:41.551Z,1.00
2022-08-08T15:38:50.349Z,1.00
2022-08-08T15:41:54.006Z,1.00
2022-08-08T15:44:56.047Z,1.00
2022-08-08T15:48:11.111Z,1.00
2022-08-08T15:51:18.363Z,1.00
2022-08-08T15:54:38.694Z,1.30
2022-08-08T15:57:42.353Z,1.00
2022-08-08T16:00:47.131Z,1.00
2022-08-08T16:03:52.361Z,1.00
2022-08-08T16:06:54.855Z,1.00
2022-08-08T16:13:10.126Z,1.00
2022-08-08T16:13:33.841Z,1.00
2022-08-08T16:16:42.038Z,1.40
2022-08-08T16:19:57.106Z,1.70
2022-08-08T16:23:02.930Z,1.00
2022-08-08T16:26:17.570Z,1.00
2022-08-08T16:29:23.856Z,1.00
2022-08-08T16:32:39.171Z,1.00
2022-08-08T16:35:43.103Z,1.90
2022-08-08T16:38:53.935Z,2.90
2022-08-08T16:42:01.370Z,2.70
2022-08-08T16:45:11.468Z,2.80
2022-08-08T16:48:26.388Z,3.50
2022-08-08T16:55:05.136Z,3.60
2022-08-08T16:55:27.964Z,3.40
2022-08-08T16:58:22.326Z,3.30
2022-08-08T17:01:28.247Z,4.20
2022-08-08T17:04:37.510Z,4.60
2022-08-08T17:07:40.450Z,6.00
2022-08-08T17:10:53.498Z,5.10
2022-08-08T17:14:01.488Z,4.40
2022-08-08T17:17:04.919Z,4.40
2022-08-08T17:20:07.227Z,4.70
2022-08-08T17:23:17.804Z,5.40
2022-08-08T17:26:31.575Z,5.50
2022-08-08T17:29:36.428Z,5.60
2022-08-08T17:34:37.466Z,5.70
2022-08-08T17:36:10.071Z,5.60
2022-08-08T17:39:22.848Z,6.80
2022-08-08T17:42:36.551Z,6.60
2022-08-08T17:45:38.521Z,6.90
2022-08-08T17:48:42.169Z,7.00
2022-08-08T17:51:51.860Z,7.10
2022-08-08T17:54:56.032Z,8.50
2022-08-08T17:57:58.472Z,8.20
2022-08-08T18:01:00.426Z,8.90
2022-08-08T18:04:02.355Z,8.50
2022-08-08T18:08:02.022Z,9.50
2022-08-08T18:10:31.243Z,10.50
2022-08-08T18:13:34.944Z,9.80
2022-08-08T18:16:52.838Z,11.00
2022-08-08T18:20:36.526Z,11.60
2022-08-08T18:23:18.984Z,10.10
2022-08-08T18:26:21.725Z,11.30
2022-08-08T18:29:29.450Z,12.90
2022-08-08T18:32:32.248Z,13.60
2022-08-08T18:35:41.802Z,14.40
2022-08-08T18:38:50.649Z,13.80
2022-08-08T18:41:59.673Z,14.80
2022-08-08T18:45:09.129Z,18.00
2022-08-08T18:48:27.827Z,18.60
2022-08-08T18:51:54.083Z,15.90
2022-08-08T18:55:00.858Z,17.70
2022-08-08T18:58:11.855Z,17.60
2022-08-08T19:02:26.036Z,17.70
2022-08-08T19:04:35.756Z,20.90
2022-08-08T19:07:38.623Z,16.70
2022-08-08T19:10:55.348Z,17.90
2022-08-08T19:13:58.775Z,20.60
2022-08-08T19:17:00.691Z,18.10
2022-08-08T19:20:03.522Z,19.40
2022-08-08T19:23:08.522Z,23.30
2022-08-08T19:26:29.309Z,20.70
2022-08-08T19:29:35.676Z,19.60
2022-08-08T19:32:42.841Z,19.50
2022-08-08T19:35:45.607Z,20.40
2022-08-08T19:39:06.759Z,26.50
2022-08-08T19:42:13.514Z,21.40
2022-08-08T19:45:59.061Z,21.10
2022-08-08T19:48:39.244Z,24.20
2022-08-08T19:51:43.224Z,23.00
2022-08-08T19:54:45.943Z,23.50
2022-08-08T19:57:47.985Z,23.40
2022-08-08T20:00:50.464Z,24.10
2022-08-08T20:04:02.350Z,24.80
2022-08-08T20:08:29.112Z,25.80
2022-08-08T20:10:31.081Z,27.00
2022-08-08T20:14:13.340Z,27.30
2022-08-08T20:16:55.571Z,28.60
2022-08-08T20:19:57.548Z,28.40
2022-08-08T20:22:59.472Z,28.50
2022-08-08T20:26:06.515Z,28.40
2022-08-08T20:29:11.114Z,29.60
2022-08-08T20:32:14.278Z,29.90
2022-08-08T20:35:16.268Z,32.10
2022-08-08T20:38:29.180Z,33.80
2022-08-08T20:41:34.341Z,34.20
2022-08-08T20:44:37.526Z,34.40
2022-08-08T20:47:39.588Z,35.10
2022-08-08T20:50:41.636Z,36.40
2022-08-08T20:54:01.177Z,36.10
2022-08-08T20:57:17.240Z,49.10
2022-08-08T21:00:23.567Z,38.30
2022-08-08T21:03:26.263Z,45.30
2022-08-08T21:06:52.789Z,41.00
2022-08-08T21:10:08.136Z,41.80
2022-08-08T21:13:15.068Z,42.90
2022-08-08T21:16:20.874Z,44.90
2022-08-08T21:19:44.126Z,58.80
2022-08-08T21:22:48.650Z,45.70
2022-08-08T21:25:54.803Z,56.40
2022-08-08T21:29:01.001Z,47.50
2022-08-08T21:32:07.681Z,49.10
2022-08-08T21:36:17.116Z,57.50
2022-08-08T21:38:38.296Z,54.60
2022-08-08T21:41:42.959Z,63.00
2022-08-08T21:44:58.112Z,63.70
2022-08-08T21:48:21.072Z,56.90
2022-08-08T21:54:17.101Z,59.70
2022-08-08T21:54:53.857Z,61.20
2022-08-08T21:58:09.653Z,56.10
2022-08-08T22:01:38.795Z,57.10
2022-08-08T22:04:37.545Z,58.30
2022-08-08T22:07:41.092Z,60.70
2022-08-08T22:10:43.233Z,58.10
2022-08-08T22:13:51.646Z,58.20
2022-08-08T22:16:54.147Z,60.30
2022-08-08T22:20:12.639Z,60.80
2022-08-08T22:23:18.525Z,62.40
2022-08-08T22:26:28.574Z,63.50
2022-08-08T22:29:58.946Z,70.30
2022-08-08T22:32:53.912Z,63.90
2022-08-08T22:36:04.085Z,69.80
2022-08-08T22:39:19.688Z,69.70
2022-08-08T22:42:27.117Z,68.40
2022-08-08T22:45:33.275Z,69.00
2022-08-08T22:48:36.768Z,69.50
2022-08-08T22:51:42.749Z,71.10
2022-08-08T22:55:04.250Z,70.60
2022-08-08T22:58:07.339Z,71.30
2022-08-08T23:01:26.761Z,74.00
2022-08-08T23:04:34.450Z,73.30
2022-08-08T23:07:52.161Z,71.70
2022-08-08T23:11:06.235Z,73.90
2022-08-08T23:14:16.377Z,74.80
2022-08-08T23:17:18.323Z,76.40
2022-08-08T23:20:21.419Z,74.30
2022-08-08T23:23:29.287Z,73.30
2022-08-08T23:26:34.031Z,72.10
2022-08-08T23:29:36.660Z,73.30
2022-08-08T23:32:43.988Z,73.40
2022-08-08T23:36:07.266Z,79.20
2022-08-08T23:39:08.455Z,78.70
2022-08-08T23:42:10.530Z,81.10
2022-08-08T23:45:12.795Z,79.70
2022-08-08T23:49:00.667Z,81.60
2022-08-08T23:51:42.515Z,94.10
2022-08-08T23:55:07.404Z,78.30
2022-08-08T23:58:32.091Z,80.10
